Time;durP1;ratioP1;P1;durP2;ratioP2;P2;SDS_P1;SDS_P2;PMS_P1;PMS_P2;Temp;Humidity;BMP_temperature;BMP_pressure;BME280_temperature;BME280_humidity;BME280_pressure;Samples;Min_cycle;Max_cycle;Signal;HPM_P1;HPM_P2
2023/12/11 00:02:24;;;;;;;35.03;5.28;;;10.50;90.50;;;;;;9180365;19;20495;-77
2023/12/11 00:05:30;;;;;;;33.50;4.45;;;10.50;90.20;;;;;;9180800;19;20006;-77
2023/12/11 00:08:40;;;;;;;34.85;3.67;;;10.40;90.30;;;;;;9182874;19;20022;-76
2023/12/11 00:11:46;;;;;;;28.33;3.72;;;10.40;90.20;;;;;;9182101;19;20013;-77
2023/12/11 00:14:53;;;;;;;40.72;5.82;;;10.40;90.30;;;;;;9179090;19;20018;-76
2023/12/11 00:18:02;;;;;;;23.40;4.07;;;10.40;90.30;;;;;;9182080;19;20011;-77
2023/12/11 00:21:10;;;;;;;30.67;5.13;;;10.40;90.30;;;;;;9181081;19;20029;-77
2023/12/11 00:24:18;;;;;;;25.33;3.28;;;10.30;90.30;;;;;;9181729;19;20019;-79
2023/12/11 00:27:25;;;;;;;34.05;4.50;;;10.40;90.30;;;;;;9179475;19;20488;-77
2023/12/11 00:30:31;;;;;;;36.85;6.40;;;10.30;90.30;;;;;;9180031;19;20015;-77
2023/12/11 00:33:38;;;;;;;39.55;4.93;;;10.40;90.30;;;;;;9181697;19;20679;-76
2023/12/11 00:36:45;;;;;;;32.78;5.20;;;10.40;90.30;;;;;;9180249;19;20039;-76
2023/12/11 00:39:56;;;;;;;33.25;4.75;;;10.30;90.30;;;;;;9180159;19;20369;-76
2023/12/11 00:43:01;;;;;;;37.33;4.72;;;10.30;90.30;;;;;;9181511;19;20048;-77
2023/12/11 00:46:09;;;;;;;46.22;5.50;;;10.30;90.30;;;;;;9180447;19;20028;-77
2023/12/11 00:49:15;;;;;;;39.88;4.57;;;10.30;90.30;;;;;;9181661;19;20493;-77
2023/12/11 00:52:23;;;;;;;38.92;5.60;;;10.30;90.40;;;;;;9180170;19;20119;-77
2023/12/11 00:55:31;;;;;;;35.63;4.57;;;10.30;90.30;;;;;;9180046;19;20443;-76
2023/12/11 00:58:39;;;;;;;39.60;4.55;;;10.30;90.30;;;;;;9177334;19;20022;-78
2023/12/11 01:01:44;;;;;;;33.30;4.30;;;10.30;90.30;;;;;;9179742;19;20585;-76
2023/12/11 01:04:52;;;;;;;41.53;4.82;;;10.30;90.30;;;;;;9179499;19;20026;-75
2023/12/11 01:07:58;;;;;;;42.97;5.63;;;10.20;90.30;;;;;;9177598;19;20026;-77
2023/12/11 01:11:09;;;;;;;36.67;4.93;;;10.20;90.40;;;;;;9177441;19;20480;-77
2023/12/11 01:14:15;;;;;;;50.47;6.10;;;10.20;90.40;;;;;;9180046;19;20019;-77
2023/12/11 01:17:23;;;;;;;55.25;6.72;;;10.20;90.40;;;;;;9179485;19;20010;-75
2023/12/11 01:20:44;;;;;;;35.25;6.07;;;10.20;90.40;;;;;;9179835;19;20006;-75
2023/12/11 01:23:52;;;;;;;37.13;4.72;;;10.20;90.40;;;;;;9179468;19;20014;-76
2023/12/11 01:27:05;;;;;;;45.58;4.63;;;10.20;90.40;;;;;;9179421;19;20006;-77
2023/12/11 01:30:13;;;;;;;54.95;5.95;;;10.20;90.40;;;;;;9177762;19;20015;-77
2023/12/11 01:33:19;;;;;;;53.00;6.57;;;10.30;90.40;;;;;;9178380;19;20006;-77
2023/12/11 01:36:26;;;;;;;46.92;6.50;;;10.30;90.50;;;;;;9179137;19;20017;-78
2023/12/11 01:39:32;;;;;;;43.78;5.43;;;10.30;90.50;;;;;;9179154;19;20010;-77
2023/12/11 01:42:42;;;;;;;42.03;5.30;;;10.30;90.50;;;;;;9178427;19;20030;-78
2023/12/11 01:45:54;;;;;;;42.22;5.80;;;10.30;90.50;;;;;;9176789;19;20476;-78
2023/12/11 01:49:02;;;;;;;50.58;6.45;;;10.40;90.50;;;;;;9178471;19;20017;-76
2023/12/11 01:52:09;;;;;;;38.75;7.25;;;10.40;90.50;;;;;;9177804;19;20030;-77
2023/12/11 01:55:17;;;;;;;50.00;6.55;;;10.40;90.50;;;;;;9178231;19;20020;-78
2023/12/11 01:58:29;;;;;;;50.97;6.28;;;10.40;90.50;;;;;;9173539;19;20010;-76
2023/12/11 02:01:38;;;;;;;42.50;5.60;;;10.40;90.50;;;;;;9178269;19;20010;-77
2023/12/11 02:04:44;;;;;;;58.45;8.07;;;10.50;90.50;;;;;;9177718;19;20018;-77
2023/12/11 02:07:52;;;;;;;42.22;5.47;;;10.50;90.50;;;;;;9177185;19;20371;-75
2023/12/11 02:10:57;;;;;;;44.00;5.25;;;10.50;90.50;;;;;;9177594;19;20030;-78
2023/12/11 02:14:08;;;;;;;51.58;6.38;;;10.50;90.50;;;;;;9177464;19;20022;-78
2023/12/11 02:17:13;;;;;;;42.40;6.88;;;10.60;90.50;;;;;;9176359;19;20021;-76
2023/12/11 02:20:21;;;;;;;51.03;7.00;;;10.60;90.50;;;;;;9177931;19;20041;-78
2023/12/11 02:23:32;;;;;;;43.63;5.90;;;10.60;90.50;;;;;;9177336;19;20093;-78
2023/12/11 02:26:43;;;;;;;52.53;6.80;;;10.70;92.20;;;;;;9171938;19;20801;-77
2023/12/11 02:29:50;;;;;;;49.15;6.22;;;10.80;92.50;;;;;;9176388;19;20018;-77
2023/12/11 02:32:58;;;;;;;42.88;7.45;;;10.80;92.30;;;;;;9175120;19;20062;-77
2023/12/11 02:36:04;;;;;;;41.47;6.50;;;10.70;90.50;;;;;;9176630;19;20014;-77
2023/12/11 02:39:11;;;;;;;46.20;5.72;;;;;;;;;;9176867;19;20014;-77
2023/12/11 02:42:20;;;;;;;44.30;5.22;;;10.70;90.20;;;;;;9177117;19;20346;-75
2023/12/11 02:45:27;;;;;;;51.78;5.45;;;10.80;90.50;;;;;;9176713;19;20426;-77
2023/12/11 02:48:33;;;;;;;45.20;6.22;;;10.80;90.40;;;;;;9173852;19;20027;-78
2023/12/11 02:51:41;;;;;;;45.03;5.68;;;10.80;90.40;;;;;;9177123;19;20421;-77
2023/12/11 02:54:46;;;;;;;44.55;6.25;;;10.80;90.40;;;;;;9176753;19;20016;-77
2023/12/11 02:57:59;;;;;;;54.13;5.65;;;10.80;90.70;;;;;;9172971;19;20014;-76
2023/12/11 03:01:05;;;;;;;41.22;7.80;;;10.80;90.30;;;;;;9175108;19;20471;-77
2023/12/11 03:04:13;;;;;;;43.63;5.50;;;10.90;90.40;;;;;;9176176;19;20025;-76
2023/12/11 03:07:19;;;;;;;46.97;6.72;;;10.90;90.30;;;;;;9172906;19;20018;-77
2023/12/11 03:10:27;;;;;;;53.05;6.78;;;10.80;90.30;;;;;;9173927;19;20022;-76
2023/12/11 03:13:35;;;;;;;48.83;4.93;;;10.80;90.60;;;;;;9174245;19;20634;-77
2023/12/11 03:16:43;;;;;;;42.95;5.25;;;10.80;90.30;;;;;;9173762;19;20026;-76
2023/12/11 03:19:48;;;;;;;40.85;6.80;;;10.80;90.30;;;;;;9173919;19;20121;-76
2023/12/11 03:22:56;;;;;;;39.25;7.32;;;10.80;90.30;;;;;;9175356;19;20022;-77
2023/12/11 03:26:02;;;;;;;42.10;5.72;;;10.80;90.30;;;;;;9172907;19;20011;-75
2023/12/11 03:29:12;;;;;;;41.17;6.47;;;10.80;90.40;;;;;;9172132;19;20022;-76
2023/12/11 03:32:18;;;;;;;44.40;4.93;;;10.80;90.30;;;;;;9176014;19;20015;-76
2023/12/11 03:35:25;;;;;;;37.15;5.55;;;10.80;90.30;;;;;;9174947;19;20483;-74
2023/12/11 03:38:31;;;;;;;58.80;6.13;;;10.70;90.30;;;;;;9174267;19;20087;-76
2023/12/11 03:41:38;;;;;;;41.80;5.00;;;10.70;90.30;;;;;;9172050;19;20025;-76
2023/12/11 03:44:47;;;;;;;36.60;4.95;;;10.70;90.30;;;;;;9176028;19;20015;-73
2023/12/11 03:47:54;;;;;;;31.23;5.47;;;10.70;90.30;;;;;;9180962;19;20474;-73
2023/12/11 03:51:00;;;;;;;41.95;5.20;;;10.70;90.30;;;;;;9182161;19;20025;-71
2023/12/11 03:54:07;;;;;;;39.28;5.45;;;10.60;90.30;;;;;;9181144;19;20021;-74
2023/12/11 03:57:13;;;;;;;34.60;4.75;;;10.60;90.30;;;;;;9177379;19;20023;-73
2023/12/11 04:00:24;;;;;;;33.30;5.25;;;10.60;90.40;;;;;;9179431;19;20018;-72
2023/12/11 04:03:31;;;;;;;30.73;4.38;;;10.60;90.40;;;;;;9182152;19;20014;-71
2023/12/11 04:06:39;;;;;;;38.55;5.30;;;10.60;90.40;;;;;;9181329;19;20021;-72
2023/12/11 04:09:44;;;;;;;33.33;4.60;;;10.60;90.40;;;;;;9179117;19;20014;-72
2023/12/11 04:12:52;;;;;;;34.95;4.65;;;10.60;90.40;;;;;;9182149;19;20030;-71
2023/12/11 04:16:03;;;;;;;29.80;4.90;;;10.60;90.40;;;;;;9180814;19;20015;-73
2023/12/11 04:19:14;;;;;;;38.10;4.80;;;10.60;90.40;;;;;;9183133;19;20019;-72
2023/12/11 04:22:21;;;;;;;32.38;4.78;;;10.60;90.40;;;;;;9180485;19;20047;-73
2023/12/11 04:25:31;;;;;;;38.22;5.10;;;10.60;90.40;;;;;;9181580;19;20024;-72
2023/12/11 04:28:37;;;;;;;27.98;4.47;;;10.60;90.40;;;;;;9179487;19;20086;-73
2023/12/11 04:31:48;;;;;;;32.85;4.32;;;10.60;90.30;;;;;;9181593;19;20006;-73
2023/12/11 04:34:53;;;;;;;31.02;4.60;;;10.50;90.30;;;;;;9180827;19;20586;-73
2023/12/11 04:38:01;;;;;;;28.92;4.07;;;10.50;90.30;;;;;;9180630;19;20018;-73
2023/12/11 04:41:07;;;;;;;37.03;5.68;;;10.50;90.40;;;;;;9180416;19;20012;-73
2023/12/11 04:44:15;;;;;;;29.08;4.53;;;10.50;90.40;;;;;;9179633;19;20029;-73
2023/12/11 04:47:23;;;;;;;31.77;5.18;;;10.50;90.40;;;;;;9179572;19;20018;-72
2023/12/11 04:50:31;;;;;;;21.17;3.58;;;10.40;90.40;;;;;;9177574;19;20006;-73
2023/12/11 04:53:37;;;;;;;37.38;4.60;;;10.40;90.40;;;;;;9177328;19;20634;-73
2023/12/11 04:56:46;;;;;;;28.35;3.88;;;10.40;90.40;;;;;;9173139;19;20388;-74
2023/12/11 04:59:52;;;;;;;24.08;4.88;;;10.40;90.40;;;;;;9180398;19;20467;-73
2023/12/11 05:03:02;;;;;;;28.55;3.33;;;10.40;90.40;;;;;;9181563;19;20018;-73
2023/12/11 05:06:09;;;;;;;30.75;4.50;;;10.30;90.40;;;;;;9179121;19;20048;-73
2023/12/11 05:09:17;;;;;;;35.35;4.93;;;10.40;90.40;;;;;;9178841;19;20021;-73
2023/12/11 05:12:22;;;;;;;34.25;4.10;;;10.40;90.50;;;;;;9177464;19;20596;-74
2023/12/11 05:15:30;;;;;;;37.03;4.25;;;10.40;90.50;;;;;;9178490;19;20014;-73
2023/12/11 05:18:39;;;;;;;33.50;4.97;;;10.40;90.50;;;;;;9176175;19;21306;-72
2023/12/11 05:21:47;;;;;;;38.78;3.92;;;10.40;90.50;;;;;;9178272;19;20396;-74
2023/12/11 05:24:53;;;;;;;29.70;4.07;;;10.40;90.50;;;;;;9183910;19;20015;-76
2023/12/11 05:28:01;;;;;;;33.22;5.30;;;10.40;90.50;;;;;;9176700;19;20631;-77
2023/12/11 05:31:07;;;;;;;41.13;4.25;;;10.40;90.50;;;;;;9177169;19;20014;-76
2023/12/11 05:34:17;;;;;;;34.80;4.55;;;10.40;90.50;;;;;;9180345;19;20014;-74
2023/12/11 05:37:23;;;;;;;29.48;3.42;;;10.40;90.50;;;;;;9177272;19;20022;-75
2023/12/11 05:40:30;;;;;;;25.85;4.07;;;10.40;90.50;;;;;;9177535;19;20018;-75
2023/12/11 05:43:36;;;;;;;26.35;3.47;;;10.40;90.50;;;;;;9178331;19;20537;-72
2023/12/11 05:46:44;;;;;;;35.05;3.67;;;10.40;90.50;;;;;;9177180;19;20533;-74
2023/12/11 05:49:53;;;;;;;32.15;3.97;;;10.40;90.50;;;;;;9175266;19;20018;-73
2023/12/11 05:53:00;;;;;;;29.88;3.78;;;10.40;90.50;;;;;;9178213;19;20487;-72
2023/12/11 05:56:07;;;;;;;36.42;4.47;;;10.40;90.50;;;;;;9176073;19;20014;-72
2023/12/11 05:59:15;;;;;;;29.30;5.13;;;10.40;90.50;;;;;;9172755;19;20022;-73
2023/12/11 06:02:20;;;;;;;29.13;3.83;;;10.40;90.50;;;;;;9177630;19;20017;-72
2023/12/11 06:05:31;;;;;;;28.35;3.15;;;10.40;90.50;;;;;;9176744;19;20034;-76
2023/12/11 06:08:37;;;;;;;31.80;5.05;;;10.40;90.50;;;;;;9168676;19;20010;-75
2023/12/11 06:11:44;;;;;;;33.50;5.22;;;10.40;90.50;;;;;;9173356;19;20021;-75
2023/12/11 06:14:50;;;;;;;37.28;4.65;;;10.50;90.60;;;;;;9177316;19;20018;-75
2023/12/11 06:17:58;;;;;;;36.47;3.78;;;10.40;90.50;;;;;;9175177;19;20026;-76
2023/12/11 06:21:07;;;;;;;35.53;4.18;;;10.40;90.50;;;;;;9176820;19;20006;-76
2023/12/11 06:24:15;;;;;;;23.83;4.30;;;10.50;90.50;;;;;;9178060;19;20031;-76
2023/12/11 06:27:22;;;;;;;22.75;3.60;;;10.50;90.50;;;;;;9175906;19;20023;-76
2023/12/11 06:30:30;;;;;;;37.78;5.03;;;10.40;90.50;;;;;;9173778;19;20011;-77
2023/12/11 06:33:35;;;;;;;32.83;5.28;;;10.40;90.50;;;;;;9176748;19;20025;-76
2023/12/11 06:36:46;;;;;;;34.08;4.05;;;10.50;90.60;;;;;;9175972;19;20029;-76
2023/12/11 06:39:52;;;;;;;39.40;6.40;;;10.50;90.60;;;;;;9175058;19;20026;-76
2023/12/11 06:43:00;;;;;;;34.13;5.15;;;10.50;90.60;;;;;;9170433;19;20022;-76
2023/12/11 06:46:06;;;;;;;28.77;4.90;;;10.50;90.60;;;;;;9172720;19;20087;-77
2023/12/11 06:49:14;;;;;;;41.75;7.05;;;10.50;90.60;;;;;;9170687;19;20015;-77
2023/12/11 06:52:25;;;;;;;45.05;5.40;;;10.50;90.60;;;;;;9173582;19;20597;-75
2023/12/11 06:55:36;;;;;;;33.78;5.18;;;10.50;90.60;;;;;;9174847;19;20372;-77
2023/12/11 06:58:44;;;;;;;41.30;4.88;;;10.50;90.60;;;;;;9171064;19;20013;-76
2023/12/11 07:01:54;;;;;;;37.50;4.70;;;10.50;90.60;;;;;;9172337;19;20018;-76
2023/12/11 07:05:00;;;;;;;36.20;4.28;;;10.50;90.60;;;;;;9174315;19;20026;-76
2023/12/11 07:08:13;;;;;;;23.42;3.38;;;10.50;90.60;;;;;;9171404;19;20574;-78
2023/12/11 07:11:24;;;;;;;44.15;3.53;;;10.50;90.60;;;;;;9170376;19;20019;-75
2023/12/11 07:14:37;;;;;;;42.85;4.72;;;10.50;90.60;;;;;;9170806;19;20111;-75
2023/12/11 07:17:44;;;;;;;33.92;4.03;;;10.50;90.60;;;;;;9174023;19;20014;-75
2023/12/11 07:20:52;;;;;;;26.73;3.90;;;10.50;90.60;;;;;;9180751;19;20026;-75
2023/12/11 07:24:02;;;;;;;36.17;4.55;;;10.50;90.60;;;;;;9184903;19;20507;-75
2023/12/11 07:27:13;;;;;;;17.35;2.70;;;10.40;90.60;;;;;;9184454;19;20473;-75
2023/12/11 07:30:20;;;;;;;33.75;4.38;;;10.40;90.60;;;;;;9182499;19;20480;-75
2023/12/11 07:33:28;;;;;;;27.65;3.25;;;10.50;90.60;;;;;;9184364;19;20361;-76
2023/12/11 07:36:34;;;;;;;21.35;3.13;;;10.40;90.60;;;;;;9186144;19;20040;-75
2023/12/11 07:39:44;;;;;;;32.58;3.88;;;10.50;90.70;;;;;;9183426;19;20011;-74
2023/12/11 07:42:50;;;;;;;15.07;2.80;;;10.40;90.60;;;;;;9180723;19;20385;-75
2023/12/11 07:45:58;;;;;;;20.55;2.67;;;10.40;90.60;;;;;;9186402;19;20018;-75
2023/12/11 07:49:04;;;;;;;22.95;4.30;;;10.40;90.60;;;;;;9184131;19;20018;-75
2023/12/11 07:52:11;;;;;;;23.58;3.58;;;10.40;90.60;;;;;;9181828;19;20023;-74
2023/12/11 07:55:20;;;;;;;16.15;2.80;;;10.40;90.70;;;;;;9186357;19;20524;-74
2023/12/11 07:58:27;;;;;;;21.73;4.10;;;10.40;90.70;;;;;;9181043;19;20034;-74
2023/12/11 08:01:33;;;;;;;18.20;2.60;;;10.40;90.70;;;;;;9184604;19;20059;-74
2023/12/11 08:04:41;;;;;;;19.13;2.65;;;10.30;90.70;;;;;;9184208;19;20014;-75
2023/12/11 08:07:47;;;;;;;27.08;3.70;;;10.40;90.70;;;;;;9184911;19;20483;-75
2023/12/11 08:10:57;;;;;;;17.15;2.97;;;10.30;90.70;;;;;;9182841;19;20010;-74
2023/12/11 08:14:03;;;;;;;11.60;2.28;;;10.30;90.70;;;;;;9185280;19;20015;-74
2023/12/11 08:17:11;;;;;;;26.10;3.47;;;10.30;90.70;;;;;;9185093;19;20021;-74
2023/12/11 08:20:19;;;;;;;23.63;4.00;;;10.30;90.70;;;;;;9183248;19;20467;-75
2023/12/11 08:23:27;;;;;;;24.45;3.22;;;10.30;90.70;;;;;;9184365;19;20014;-74
2023/12/11 08:26:35;;;;;;;19.42;2.53;;;10.30;90.80;;;;;;9179281;19;20488;-73
2023/12/11 08:29:43;;;;;;;29.20;3.20;;;10.30;90.70;;;;;;9178152;19;20014;-72
2023/12/11 08:32:48;;;;;;;13.70;2.55;;;10.30;90.70;;;;;;9177489;19;20672;-72
2023/12/11 08:35:56;;;;;;;17.55;3.13;;;10.30;90.80;;;;;;9179981;19;20345;-73
2023/12/11 08:39:02;;;;;;;27.02;2.97;;;10.30;90.80;;;;;;9178794;19;20033;-72
2023/12/11 08:42:12;;;;;;;10.05;2.33;;;10.30;90.80;;;;;;9180210;19;20030;-73
2023/12/11 08:45:18;;;;;;;10.60;2.92;;;10.30;90.80;;;;;;9180453;19;20025;-73
2023/12/11 08:48:25;;;;;;;13.75;3.08;;;10.20;90.80;;;;;;9180300;19;20598;-73
2023/12/11 08:51:33;;;;;;;14.45;2.70;;;10.30;90.80;;;;;;9178095;19;20018;-73
2023/12/11 08:54:41;;;;;;;12.15;3.20;;;10.30;90.80;;;;;;9175972;19;20014;-72
2023/12/11 08:57:49;;;;;;;16.45;2.15;;;10.20;90.80;;;;;;9175070;19;20018;-73
2023/12/11 09:00:57;;;;;;;11.05;1.88;;;10.20;90.80;;;;;;9178914;19;20014;-73
2023/12/11 09:04:03;;;;;;;17.77;3.20;;;10.30;90.80;;;;;;9178471;19;20022;-73
2023/12/11 09:07:11;;;;;;;12.82;1.73;;;10.20;90.80;;;;;;9176902;19;20021;-72
2023/12/11 09:10:17;;;;;;;14.23;1.95;;;10.20;90.80;;;;;;9179515;19;20023;-74
2023/12/11 09:13:27;;;;;;;11.73;1.80;;;10.20;90.90;;;;;;9177773;19;20015;-73
2023/12/11 09:16:34;;;;;;;9.50;2.42;;;10.20;90.90;;;;;;9176905;19;20022;-72
2023/12/11 09:19:41;;;;;;;18.50;2.58;;;10.20;90.90;;;;;;9176547;19;20011;-73
2023/12/11 09:22:59;;;;;;;8.52;1.80;;;10.20;90.90;;;;;;9177003;19;20021;-73
2023/12/11 09:26:07;;;;;;;4.50;0.88;;;10.20;90.90;;;;;;9178790;19;20030;-72
2023/12/11 09:29:15;;;;;;;6.78;1.33;;;10.20;90.90;;;;;;9174751;19;20022;-72
2023/12/11 09:32:23;;;;;;;11.40;1.67;;;10.20;90.90;;;;;;9174540;19;20488;-72
2023/12/11 09:35:29;;;;;;;11.65;1.33;;;10.20;90.90;;;;;;9175787;19;20448;-72
2023/12/11 09:38:37;;;;;;;9.00;2.03;;;10.20;90.90;;;;;;9172039;19;20014;-74
2023/12/11 09:41:45;;;;;;;10.90;1.95;;;10.20;91.00;;;;;;9175575;19;20373;-73
2023/12/11 09:44:56;;;;;;;11.77;1.48;;;10.20;91.00;;;;;;9175448;19;20018;-72
2023/12/11 09:48:03;;;;;;;11.15;1.23;;;10.30;91.00;;;;;;9175375;19;20557;-72
2023/12/11 09:51:20;;;;;;;10.75;1.75;;;10.30;91.00;;;;;;9174948;19;20014;-73
2023/12/11 09:54:27;;;;;;;7.05;1.80;;;10.30;91.00;;;;;;9177140;19;20019;-72
2023/12/11 09:57:35;;;;;;;14.07;2.78;;;10.30;91.00;;;;;;9172880;19;20741;-72
2023/12/11 10:00:44;;;;;;;15.80;2.38;;;10.30;91.00;;;;;;9177711;19;20018;-72
2023/12/11 10:03:52;;;;;;;13.30;1.75;;;10.40;91.00;;;;;;9176502;19;20015;-72
2023/12/11 10:06:58;;;;;;;19.45;3.92;;;10.40;91.00;;;;;;9176720;19;20073;-73
2023/12/11 10:10:25;;;;;;;16.85;2.10;;;10.40;91.00;;;;;;9177482;19;20018;-72
2023/12/11 10:13:31;;;;;;;14.95;1.42;;;10.40;91.00;;;;;;9174866;19;20055;-71
2023/12/11 10:16:42;;;;;;;14.30;2.97;;;10.40;91.00;;;;;;9176629;19;20015;-72
2023/12/11 10:19:48;;;;;;;10.77;1.80;;;10.40;91.00;;;;;;9176727;19;20018;-74
2023/12/11 10:22:59;;;;;;;12.75;2.13;;;10.40;91.00;;;;;;9174488;19;20078;-72
2023/12/11 10:26:10;;;;;;;15.65;1.63;;;10.40;91.00;;;;;;9173407;19;28086;-72
2023/12/11 10:29:23;;;;;;;13.13;1.90;;;10.40;91.00;;;;;;9167143;19;20754;-71
2023/12/11 10:32:33;;;;;;;8.18;1.83;;;10.40;91.00;;;;;;9174192;19;20445;-74
2023/12/11 10:35:41;;;;;;;18.67;2.40;;;10.50;91.00;;;;;;9173820;19;20018;-72
2023/12/11 10:38:47;;;;;;;12.27;2.03;;;10.50;91.00;;;;;;9175032;19;20011;-71
2023/12/11 10:41:54;;;;;;;9.82;2.22;;;10.50;91.00;;;;;;9175729;19;20020;-73
2023/12/11 10:45:01;;;;;;;30.25;5.75;;;10.50;91.00;;;;;;9175279;19;20018;-75
2023/12/11 10:48:12;;;;;;;11.07;2.42;;;10.50;91.00;;;;;;9176763;19;20014;-74
2023/12/11 10:51:18;;;;;;;13.18;1.83;;;10.50;91.00;;;;;;9173775;19;20021;-74
2023/12/11 10:54:26;;;;;;;10.23;1.45;;;10.50;91.00;;;;;;9173069;19;20029;-74
2023/12/11 10:57:33;;;;;;;5.75;0.90;;;10.40;90.90;;;;;;9174068;19;20011;-70
2023/12/11 11:00:47;;;;;;;8.90;1.50;;;10.40;90.90;;;;;;9173437;19;20018;-76
2023/12/11 11:03:57;;;;;;;5.07;1.13;;;10.40;90.90;;;;;;9172638;19;20023;-72
2023/12/11 11:07:14;;;;;;;11.00;2.47;;;10.40;90.90;;;;;;9174880;19;20010;-71
2023/12/11 11:10:23;;;;;;;10.45;1.50;;;10.40;90.90;;;;;;9175112;19;20007;-71
2023/12/11 11:13:37;;;;;;;10.57;2.40;;;10.30;90.90;;;;;;9170491;19;20009;-73
2023/12/11 11:17:01;;;;;;;18.65;3.25;;;10.30;90.90;;;;;;9174817;19;20026;-75
2023/12/11 11:20:17;;;;;;;13.05;1.83;;;10.30;90.90;;;;;;9174557;19;20026;-72
2023/12/11 11:23:32;;;;;;;11.80;1.83;;;10.30;90.90;;;;;;9169195;19;20022;-72
2023/12/11 11:26:39;;;;;;;17.35;2.33;;;10.30;91.00;;;;;;9166251;19;20015;-74
2023/12/11 11:29:46;;;;;;;20.38;3.58;;;10.30;91.00;;;;;;9172553;19;20022;-76
2023/12/11 11:32:56;;;;;;;14.48;2.35;;;10.30;91.00;;;;;;9170991;19;20015;-74
2023/12/11 11:36:05;;;;;;;25.25;3.22;;;10.40;91.00;;;;;;9173273;19;20011;-73
2023/12/11 11:39:18;;;;;;;17.40;3.47;;;10.40;91.00;;;;;;9174836;19;20352;-74
2023/12/11 11:42:28;;;;;;;19.10;3.28;;;10.40;91.00;;;;;;9175853;19;20081;-76
2023/12/11 11:45:36;;;;;;;17.92;4.05;;;10.40;91.00;;;;;;9175453;19;20026;-76
2023/12/11 11:48:48;;;;;;;27.42;3.15;;;10.40;91.00;;;;;;9174667;19;20019;-77
2023/12/11 11:52:01;;;;;;;24.77;3.40;;;10.50;91.00;;;;;;9172612;19;20015;-75
2023/12/11 11:55:14;;;;;;;19.52;4.95;;;10.50;91.00;;;;;;9174049;19;20036;-73
2023/12/11 11:58:22;;;;;;;;;;;10.50;91.20;;;;;;9172885;19;20040;-71
2023/12/11 12:01:27;;;;;;;21.67;2.70;;;10.50;91.00;;;;;;9171176;19;20277;-74
2023/12/11 12:04:36;;;;;;;13.98;2.25;;;10.50;91.00;;;;;;9165734;19;20487;-75
2023/12/11 12:07:45;;;;;;;16.38;2.47;;;10.60;91.00;;;;;;9181353;19;20048;-74
2023/12/11 12:10:52;;;;;;;19.02;2.22;;;10.60;90.90;;;;;;9179736;19;20007;-74
2023/12/11 12:13:58;;;;;;;12.32;2.17;;;10.60;90.90;;;;;;9179519;19;20033;-74
2023/12/11 12:17:12;;;;;;;19.48;2.20;;;10.60;90.90;;;;;;9181440;19;20040;-74
2023/12/11 12:20:19;;;;;;;15.38;2.55;;;10.60;90.80;;;;;;9179621;19;20019;-75
2023/12/11 12:23:29;;;;;;;11.13;1.92;;;10.60;90.80;;;;;;9181183;19;20019;-72
2023/12/11 12:26:37;;;;;;;12.95;2.58;;;10.60;90.70;;;;;;9177544;19;20011;-72
2023/12/11 12:29:45;;;;;;;13.35;2.17;;;10.70;90.80;;;;;;9180783;19;20468;-74
2023/12/11 12:32:52;;;;;;;17.52;2.22;;;10.70;90.80;;;;;;9174786;19;20014;-75
2023/12/11 12:36:02;;;;;;;13.00;1.95;;;10.70;90.70;;;;;;9177547;19;20060;-73
2023/12/11 12:39:13;;;;;;;18.30;2.97;;;10.60;90.60;;;;;;9177122;19;20106;-74
2023/12/11 12:42:21;;;;;;;12.13;1.80;;;10.70;90.60;;;;;;9177219;19;20010;-74
2023/12/11 12:45:32;;;;;;;9.60;2.10;;;10.90;90.70;;;;;;9167891;19;20031;-74
2023/12/11 12:48:54;;;;;;;14.25;1.55;;;10.60;90.60;;;;;;9143752;19;20017;-74
2023/12/11 12:52:02;;;;;;;11.30;1.20;;;10.50;90.50;;;;;;9147478;19;20028;-74
2023/12/11 12:55:15;;;;;;;14.45;1.80;;;10.50;90.70;;;;;;9162697;19;20026;-73
2023/12/11 12:58:29;;;;;;;8.27;1.20;;;10.50;90.70;;;;;;9176398;19;20014;-74
2023/12/11 13:01:44;;;;;;;9.38;1.67;;;10.50;90.70;;;;;;9177695;19;20015;-72
2023/12/11 13:04:55;;;;;;;20.55;2.25;;;10.50;91.00;;;;;;9176089;19;20031;-77
2023/12/11 13:08:04;;;;;;;7.47;1.30;;;10.50;91.10;;;;;;9175707;19;20018;-76
2023/12/11 13:11:16;;;;;;;7.63;1.08;;;10.60;91.50;;;;;;9178028;19;20030;-76
2023/12/11 13:14:26;;;;;;;7.28;1.27;;;10.50;91.60;;;;;;9172126;19;20022;-76
2023/12/11 13:17:37;;;;;;;11.25;1.42;;;10.50;91.50;;;;;;9176241;19;20060;-75
2023/12/11 13:20:50;;;;;;;10.77;1.17;;;10.60;91.50;;;;;;9172799;19;20015;-76
2023/12/11 13:23:55;;;;;;;8.15;1.45;;;10.50;92.00;;;;;;9176101;19;20027;-75
2023/12/11 13:27:15;;;;;;;6.85;1.58;;;10.40;90.70;;;;;;9173122;19;20475;-74
2023/12/11 13:30:26;;;;;;;11.50;3.03;;;10.40;90.90;;;;;;9176135;19;20023;-74
2023/12/11 13:33:42;;;;;;;5.68;1.65;;;10.50;92.30;;;;;;9178241;19;20376;-74
2023/12/11 13:36:51;;;;;;;7.85;1.10;;;10.20;90.50;;;;;;9177735;19;20416;-73
2023/12/11 13:40:04;;;;;;;7.00;1.00;;;10.50;92.10;;;;;;9177350;19;20015;-74
2023/12/11 13:43:15;;;;;;;6.45;1.45;;;10.20;90.50;;;;;;9178744;19;20052;-74
2023/12/11 13:46:23;;;;;;;7.93;1.42;;;10.20;90.70;;;;;;9177693;19;20014;-74
2023/12/11 13:49:35;;;;;;;7.38;1.15;;;10.20;90.70;;;;;;9177161;19;20025;-75
2023/12/11 13:52:44;;;;;;;5.80;0.93;;;10.20;92.50;;;;;;9174031;19;20030;-75
2023/12/11 13:55:51;;;;;;;4.22;0.82;;;10.20;90.80;;;;;;9177721;19;20365;-75
2023/12/11 13:59:06;;;;;;;6.88;1.35;;;10.10;90.90;;;;;;9177060;19;20024;-73
2023/12/11 14:02:14;;;;;;;;;;;10.30;91.00;;;;;;9177281;19;20018;-75
2023/12/11 14:05:44;;;;;;;7.47;1.52;;;10.10;91.10;;;;;;9174147;19;19922;-77
2023/12/11 14:08:52;;;;;;;4.97;1.00;;;10.10;91.00;;;;;;9176589;19;20022;-75
2023/12/11 14:12:07;;;;;;;3.88;1.10;;;10.00;91.10;;;;;;9171620;19;20007;-75
2023/12/11 14:15:16;;;;;;;4.03;0.98;;;9.90;91.00;;;;;;9173854;19;20676;-74
2023/12/11 14:18:30;;;;;;;4.35;0.80;;;10.00;91.10;;;;;;9173841;19;20018;-74
2023/12/11 14:21:37;;;;;;;6.03;0.98;;;9.90;91.40;;;;;;9175303;19;20101;-72
2023/12/11 14:24:46;;;;;;;1.58;0.50;;;10.00;92.50;;;;;;9171327;19;20022;-73
2023/12/11 14:28:00;;;;;;;8.88;0.95;;;9.90;91.40;;;;;;9169253;19;20019;-72
2023/12/11 14:31:18;;;;;;;3.85;0.60;;;9.80;90.70;;;;;;9173898;19;20010;-74
2023/12/11 14:34:27;;;;;;;4.28;0.88;;;9.70;90.40;;;;;;9170447;19;20113;-74
2023/12/11 14:37:37;;;;;;;2.25;1.00;;;9.80;90.40;;;;;;9170768;19;20022;-74
2023/12/11 14:40:45;;;;;;;11.43;2.65;;;9.60;90.40;;;;;;9171283;19;20026;-73
2023/12/11 14:43:57;;;;;;;10.73;1.20;;;9.60;90.40;;;;;;9171512;19;20011;-74
2023/12/11 14:47:09;;;;;;;4.78;1.40;;;9.60;90.40;;;;;;9173645;19;20442;-73
2023/12/11 14:50:16;;;;;;;7.15;2.35;;;9.60;90.40;;;;;;9173693;19;20018;-73
2023/12/11 14:53:28;;;;;;;5.55;2.42;;;9.60;90.40;;;;;;9173797;19;20010;-73
2023/12/11 14:56:36;;;;;;;6.60;1.30;;;9.50;90.40;;;;;;9170477;19;20022;-73
2023/12/11 14:59:41;;;;;;;8.77;1.27;;;9.50;90.40;;;;;;9174449;19;20023;-73
2023/12/11 15:02:52;;;;;;;10.30;1.00;;;9.50;90.40;;;;;;9170769;19;20014;-73
2023/12/11 15:05:58;;;;;;;3.40;0.80;;;9.50;90.40;;;;;;9173279;19;20025;-73
2023/12/11 15:09:07;;;;;;;2.00;0.70;;;9.50;90.40;;;;;;9172712;19;20018;-73
2023/12/11 15:12:12;;;;;;;1.08;0.50;;;9.50;90.40;;;;;;9171563;19;20045;-73
2023/12/11 15:15:20;;;;;;;2.50;0.88;;;9.40;90.40;;;;;;9168534;19;20014;-73
2023/12/11 15:18:28;;;;;;;2.72;0.95;;;9.40;90.40;;;;;;9173441;19;20027;-73
2023/12/11 15:21:37;;;;;;;4.68;0.70;;;9.40;90.50;;;;;;9169108;19;20483;-73
2023/12/11 15:24:43;;;;;;;5.18;0.70;;;9.40;90.40;;;;;;9170108;19;20022;-73
2023/12/11 15:27:51;;;;;;;2.63;0.73;;;9.40;90.50;;;;;;9166284;19;20019;-72
2023/12/11 15:30:57;;;;;;;7.22;1.10;;;9.40;90.40;;;;;;9173875;19;20482;-72
2023/12/11 15:34:23;;;;;;;4.40;0.77;;;9.40;90.50;;;;;;9172618;19;20041;-72
2023/12/11 15:37:28;;;;;;;3.50;0.80;;;9.30;90.60;;;;;;9170649;19;20504;-73
2023/12/11 15:40:36;;;;;;;1.05;0.50;;;9.40;91.00;;;;;;9173280;19;20006;-72
2023/12/11 15:43:45;;;;;;;4.50;0.85;;;9.40;91.50;;;;;;9181029;19;20375;-72
2023/12/11 15:46:53;;;;;;;2.85;0.60;;;9.30;90.50;;;;;;9181358;19;20014;-73
2023/12/11 15:50:01;;;;;;;3.28;0.90;;;9.30;90.50;;;;;;9178781;19;20063;-73
2023/12/11 15:53:09;;;;;;;9.00;1.02;;;9.30;90.50;;;;;;9182935;19;20025;-72
2023/12/11 15:56:16;;;;;;;8.85;1.38;;;9.50;91.40;;;;;;9177127;19;20044;-72
2023/12/11 15:59:24;;;;;;;6.07;1.45;;;9.20;90.30;;;;;;9180383;19;20073;-72
2023/12/11 16:02:29;;;;;;;3.30;0.75;;;9.20;90.30;;;;;;9180421;19;20657;-72
2023/12/11 16:05:40;;;;;;;12.75;2.83;;;9.20;90.30;;;;;;9177157;19;20007;-72
2023/12/11 16:08:46;;;;;;;7.00;1.33;;;9.20;90.30;;;;;;9180024;19;20026;-71
2023/12/11 16:11:54;;;;;;;9.15;1.50;;;9.20;90.30;;;;;;9177690;19;20702;-72
2023/12/11 16:14:59;;;;;;;5.63;1.55;;;9.20;90.30;;;;;;9178486;19;20617;-73